Time,TemperatureF,DewpointF,PressureIn,WindDirection,WindDirectionDegrees,WindSpeedMPH,WindSpeedGustMPH,Humidity,HourlyPrecipIn,Conditions,Clouds,dailyrainin,SoftwareType,DateUTC
2013-10-23 00:00:00,36.0,-99.9,29.84,NW,320,14.0,-999.0,-999,-99.99,,,-99.99,,2013-10-23 05:00:00,
2013-10-23 00:43:00,36.0,-99.9,29.84,NW,320,14.0,-999.0,-999,-99.99,,,-99.99,,2013-10-23 05:43:00,
2013-10-23 00:53:00,36.0,-99.9,29.84,NW,320,14.0,-999.0,-999,-99.99,,,-99.99,,2013-10-23 05:53:00,
2013-10-23 01:00:00,38.0,-99.9,29.82,NNW,330,23.0,-999.0,-999,-99.99,,,-99.99,,2013-10-23 06:00:00,
2013-10-23 01:42:00,38.0,-99.9,29.82,NNW,330,23.0,-999.0,-999,-99.99,,,-99.99,,2013-10-23 06:42:00,
2013-10-23 01:52:00,38.0,-99.9,29.82,NNW,330,23.0,-999.0,-999,-99.99,,,-99.99,,2013-10-23 06:52:00,
2013-10-23 02:00:00,37.0,-99.9,29.81,NW,320,21.0,-999.0,-999,-99.99,,,-99.99,,2013-10-23 07:00:00,
2013-10-23 02:42:00,37.0,-99.9,29.81,NW,320,21.0,-999.0,-999,-99.99,,,-99.99,,2013-10-23 07:42:00,
2013-10-23 02:52:00,37.0,-99.9,29.81,NW,320,21.0,-999.0,-999,-99.99,,,-99.99,,2013-10-23 07:52:00,
2013-10-23 04:00:00,33.0,-99.9,29.79,NNW,330,11.0,-999.0,-999,-99.99,,,-99.99,,2013-10-23 09:00:00,
2013-10-23 04:43:00,33.0,-99.9,29.79,NNW,330,11.0,-999.0,-999,-99.99,,,-99.99,,2013-10-23 09:43:00,
2013-10-23 04:54:00,33.0,-99.9,29.79,NNW,330,11.0,-999.0,-999,-99.99,,,-99.99,,2013-10-23 09:54:00,
2013-10-23 05:00:00,31.0,-99.9,29.80,West,260,8.0,-999.0,-999,-99.99,,,-99.99,,2013-10-23 10:00:00,
2013-10-23 05:43:00,31.0,-99.9,29.80,West,260,8.0,-999.0,-999,-99.99,,,-99.99,,2013-10-23 10:43:00,
2013-10-23 05:53:00,31.0,-99.9,29.80,West,260,8.0,-999.0,-999,-99.99,,,-99.99,,2013-10-23 10:53:00,
2013-10-23 06:00:00,33.0,-99.9,29.79,SW,230,8.0,-999.0,-999,-99.99,,,-99.99,,2013-10-23 11:00:00,
2013-10-23 06:42:00,33.0,-99.9,29.79,SW,230,8.0,-999.0,-999,-99.99,,,-99.99,,2013-10-23 11:42:00,
2013-10-23 06:52:00,33.0,-99.9,29.79,SW,230,8.0,-999.0,-999,-99.99,,,-99.99,,2013-10-23 11:52:00,
2013-10-23 07:00:00,30.0,-99.9,29.79,SSE,150,5.0,-999.0,-999,-99.99,,,-99.99,,2013-10-23 12:00:00,
2013-10-23 07:42:00,30.0,-99.9,29.79,SSE,150,5.0,-999.0,-999,-99.99,,,-99.99,,2013-10-23 12:42:00,
2013-10-23 07:52:00,30.0,-99.9,29.79,SSE,150,5.0,-999.0,-999,-99.99,,,-99.99,,2013-10-23 12:52:00,
2013-10-23 08:00:00,30.0,-99.9,29.79,ENE,60,5.0,-999.0,-999,-99.99,,,-99.99,,2013-10-23 13:00:00,
2013-10-23 08:43:00,30.0,-99.9,29.79,ENE,60,5.0,-999.0,-999,-99.99,,,-99.99,,2013-10-23 13:43:00,
2013-10-23 08:52:00,30.0,-99.9,29.79,ENE,60,5.0,-999.0,-999,-99.99,,,-99.99,,2013-10-23 13:52:00,
2013-10-23 09:00:00,33.0,-99.9,29.79,North,350,5.0,-999.0,-999,-99.99,,,-99.99,,2013-10-23 14:00:00,
2013-10-23 09:42:00,33.0,-99.9,29.79,North,350,5.0,-999.0,-999,-99.99,,,-99.99,,2013-10-23 14:42:00,
2013-10-23 09:52:00,33.0,-99.9,29.79,North,350,5.0,-999.0,-999,-99.99,,,-99.99,,2013-10-23 14:52:00,
2013-10-23 10:00:00,38.0,-99.9,29.75,NW,320,15.0,-999.0,-999,-99.99,,,-99.99,,2013-10-23 15:00:00,
2013-10-23 10:54:00,38.0,-99.9,29.75,NW,320,15.0,-999.0,-999,-99.99,,,-99.99,,2013-10-23 15:54:00,
2013-10-23 11:00:00,39.0,-99.9,29.74,NW,320,22.0,-999.0,-999,-99.99,,,-99.99,,2013-10-23 16:00:00,
2013-10-23 11:43:00,39.0,-99.9,29.74,NW,320,22.0,-999.0,-999,-99.99,,,-99.99,,2013-10-23 16:43:00,
2013-10-23 11:53:00,39.0,-99.9,29.74,NW,320,22.0,-999.0,-999,-99.99,,,-99.99,,2013-10-23 16:53:00,
2013-10-23 12:00:00,38.0,-99.9,29.76,NNW,340,22.0,-999.0,-999,-99.99,,,-99.99,,2013-10-23 17:00:00,
2013-10-23 12:44:00,38.0,-99.9,29.76,NNW,340,22.0,-999.0,-999,-99.99,,,-99.99,,2013-10-23 17:44:00,
2013-10-23 12:52:00,38.0,-99.9,29.76,NNW,340,22.0,-999.0,-999,-99.99,,,-99.99,,2013-10-23 17:52:00,
2013-10-23 14:00:00,38.0,-99.9,29.77,NW,320,24.0,-999.0,-999,-99.99,,,-99.99,,2013-10-23 19:00:00,
2013-10-23 14:42:00,38.0,-99.9,29.77,NW,320,24.0,-999.0,-999,-99.99,,,-99.99,,2013-10-23 19:42:00,
2013-10-23 14:53:00,38.0,-99.9,29.77,NW,320,24.0,-999.0,-999,-99.99,,,-99.99,,2013-10-23 19:53:00,
2013-10-23 15:00:00,39.0,-99.9,29.77,NW,320,33.0,-999.0,-999,-99.99,,,-99.99,,2013-10-23 20:00:00,
2013-10-23 15:42:00,39.0,-99.9,29.77,NW,320,33.0,-999.0,-999,-99.99,,,-99.99,,2013-10-23 20:42:00,
2013-10-23 15:53:00,39.0,-99.9,29.77,NW,320,33.0,-999.0,-999,-99.99,,,-99.99,,2013-10-23 20:53:00,
2013-10-23 16:00:00,38.0,-99.9,29.80,NNW,330,30.0,-999.0,-999,-99.99,,,-99.99,,2013-10-23 21:00:00,
2013-10-23 16:43:00,38.0,-99.9,29.80,NNW,330,30.0,-999.0,-999,-99.99,,,-99.99,,2013-10-23 21:43:00,
2013-10-23 16:54:00,38.0,-99.9,29.80,NNW,330,30.0,-999.0,-999,-99.99,,,-99.99,,2013-10-23 21:54:00,
2013-10-23 17:00:00,40.0,-99.9,29.80,NW,310,32.0,-999.0,-999,-99.99,,,-99.99,,2013-10-23 22:00:00,
2013-10-23 17:43:00,40.0,-99.9,29.80,NW,310,32.0,-999.0,-999,-99.99,,,-99.99,,2013-10-23 22:43:00,
2013-10-23 17:54:00,40.0,-99.9,29.80,NW,310,32.0,-999.0,-999,-99.99,,,-99.99,,2013-10-23 22:54:00,
2013-10-23 18:00:00,37.0,-99.9,29.82,West,280,29.0,-999.0,-999,-99.99,,,-99.99,,2013-10-23 23:00:00,
2013-10-23 18:43:00,37.0,-99.9,29.82,West,280,29.0,-999.0,-999,-99.99,,,-99.99,,2013-10-23 23:43:00,
2013-10-23 18:53:00,37.0,-99.9,29.82,West,280,29.0,-999.0,-999,-99.99,,,-99.99,,2013-10-23 23:53:00,
2013-10-23 23:00:00,35.0,-99.9,29.88,NW,320,5.0,-999.0,-999,-99.99,,,-99.99,,2013-10-24 04:00:00,
2013-10-23 23:44:00,35.0,-99.9,29.88,NW,320,5.0,-999.0,-999,-99.99,,,-99.99,,2013-10-24 04:44:00,
2013-10-23 23:54:00,35.0,-99.9,29.88,NW,320,5.0,-999.0,-999,-99.99,,,-99.99,,2013-10-24 04:54:00,